sensor_id;sensor_type;location;lat;lon;timestamp;P1;durP1;ratioP1;P2;durP2;ratioP2
44276;SDS011;29973;43.742;1.236;2022-10-16T00:00:35;11.60;;;8.50;;
44276;SDS011;29973;43.742;1.236;2022-10-16T00:03:03;13.95;;;8.93;;
44276;SDS011;29973;43.742;1.236;2022-10-16T00:05:30;22.00;;;8.93;;
44276;SDS011;29973;43.742;1.236;2022-10-16T00:07:56;14.43;;;8.02;;
44276;SDS011;29973;43.742;1.236;2022-10-16T00:10:22;12.65;;;8.93;;
44276;SDS011;29973;43.742;1.236;2022-10-16T00:12:48;11.40;;;7.93;;
44276;SDS011;29973;43.742;1.236;2022-10-16T00:15:14;13.10;;;7.78;;
44276;SDS011;29973;43.742;1.236;2022-10-16T00:17:40;10.07;;;7.97;;
44276;SDS011;29973;43.742;1.236;2022-10-16T00:20:06;13.73;;;8.18;;
44276;SDS011;29973;43.742;1.236;2022-10-16T00:22:32;10.93;;;7.97;;
44276;SDS011;29973;43.742;1.236;2022-10-16T00:24:58;10.88;;;8.48;;
44276;SDS011;29973;43.742;1.236;2022-10-16T00:27:24;12.73;;;8.32;;
44276;SDS011;29973;43.742;1.236;2022-10-16T00:29:50;12.05;;;8.48;;
44276;SDS011;29973;43.742;1.236;2022-10-16T00:32:16;12.18;;;8.23;;
44276;SDS011;29973;43.742;1.236;2022-10-16T00:34:43;10.98;;;8.90;;
44276;SDS011;29973;43.742;1.236;2022-10-16T00:37:08;15.73;;;8.57;;
44276;SDS011;29973;43.742;1.236;2022-10-16T00:39:34;13.07;;;8.73;;
44276;SDS011;29973;43.742;1.236;2022-10-16T00:42:00;13.77;;;8.90;;
44276;SDS011;29973;43.742;1.236;2022-10-16T00:47:21;13.25;;;8.93;;
44276;SDS011;29973;43.742;1.236;2022-10-16T00:49:48;11.82;;;9.15;;
44276;SDS011;29973;43.742;1.236;2022-10-16T00:52:16;10.40;;;7.82;;
44276;SDS011;29973;43.742;1.236;2022-10-16T00:54:42;11.95;;;9.23;;
44276;SDS011;29973;43.742;1.236;2022-10-16T00:57:08;13.02;;;9.35;;
44276;SDS011;29973;43.742;1.236;2022-10-16T00:59:36;12.20;;;9.35;;
44276;SDS011;29973;43.742;1.236;2022-10-16T01:02:05;12.77;;;8.18;;
44276;SDS011;29973;43.742;1.236;2022-10-16T01:04:33;13.82;;;8.50;;
44276;SDS011;29973;43.742;1.236;2022-10-16T01:21:15;9.80;;;8.23;;
44276;SDS011;29973;43.742;1.236;2022-10-16T01:28:54;15.00;;;9.27;;
44276;SDS011;29973;43.742;1.236;2022-10-16T01:31:25;15.52;;;7.75;;
44276;SDS011;29973;43.742;1.236;2022-10-16T01:34:14;15.18;;;9.13;;
44276;SDS011;29973;43.742;1.236;2022-10-16T01:36:47;14.98;;;9.38;;
44276;SDS011;29973;43.742;1.236;2022-10-16T01:39:21;13.60;;;9.15;;
44276;SDS011;29973;43.742;1.236;2022-10-16T01:41:54;10.77;;;7.95;;
44276;SDS011;29973;43.742;1.236;2022-10-16T01:44:42;13.73;;;8.68;;
44276;SDS011;29973;43.742;1.236;2022-10-16T01:47:10;14.10;;;8.70;;
44276;SDS011;29973;43.742;1.236;2022-10-16T01:49:39;18.60;;;8.82;;
44276;SDS011;29973;43.742;1.236;2022-10-16T01:52:09;13.55;;;8.50;;
44276;SDS011;29973;43.742;1.236;2022-10-16T01:54:40;14.55;;;9.43;;
44276;SDS011;29973;43.742;1.236;2022-10-16T01:57:08;11.35;;;9.50;;
44276;SDS011;29973;43.742;1.236;2022-10-16T01:59:38;13.65;;;9.50;;
44276;SDS011;29973;43.742;1.236;2022-10-16T02:02:10;14.73;;;9.90;;
44276;SDS011;29973;43.742;1.236;2022-10-16T02:04:38;14.32;;;10.10;;
44276;SDS011;29973;43.742;1.236;2022-10-16T02:07:10;16.42;;;9.23;;
44276;SDS011;29973;43.742;1.236;2022-10-16T02:09:37;15.82;;;9.82;;
44276;SDS011;29973;43.742;1.236;2022-10-16T02:12:14;17.13;;;10.70;;
44276;SDS011;29973;43.742;1.236;2022-10-16T02:14:47;13.95;;;9.60;;
44276;SDS011;29973;43.742;1.236;2022-10-16T02:17:14;12.98;;;9.50;;
44276;SDS011;29973;43.742;1.236;2022-10-16T02:19:42;18.05;;;11.10;;
44276;SDS011;29973;43.742;1.236;2022-10-16T02:22:15;13.25;;;9.85;;
44276;SDS011;29973;43.742;1.236;2022-10-16T02:27:38;16.67;;;10.68;;
44276;SDS011;29973;43.742;1.236;2022-10-16T02:30:24;18.02;;;10.63;;
44276;SDS011;29973;43.742;1.236;2022-10-16T02:32:56;18.60;;;11.38;;
44276;SDS011;29973;43.742;1.236;2022-10-16T02:35:25;15.05;;;11.43;;
44276;SDS011;29973;43.742;1.236;2022-10-16T02:37:52;19.17;;;11.15;;
44276;SDS011;29973;43.742;1.236;2022-10-16T02:40:19;14.77;;;11.13;;
44276;SDS011;29973;43.742;1.236;2022-10-16T02:42:49;14.05;;;11.00;;
44276;SDS011;29973;43.742;1.236;2022-10-16T02:45:16;24.33;;;12.13;;
44276;SDS011;29973;43.742;1.236;2022-10-16T02:47:42;20.05;;;12.73;;
44276;SDS011;29973;43.742;1.236;2022-10-16T02:50:08;19.15;;;11.52;;
44276;SDS011;29973;43.742;1.236;2022-10-16T02:52:34;20.45;;;12.65;;
44276;SDS011;29973;43.742;1.236;2022-10-16T02:55:00;18.63;;;11.98;;
44276;SDS011;29973;43.742;1.236;2022-10-16T02:57:25;21.15;;;12.32;;
44276;SDS011;29973;43.742;1.236;2022-10-16T02:59:51;18.05;;;12.65;;
44276;SDS011;29973;43.742;1.236;2022-10-16T03:02:17;19.92;;;12.45;;
44276;SDS011;29973;43.742;1.236;2022-10-16T03:04:43;20.50;;;12.75;;
44276;SDS011;29973;43.742;1.236;2022-10-16T03:07:08;29.00;;;13.88;;
44276;SDS011;29973;43.742;1.236;2022-10-16T03:09:34;22.00;;;14.38;;
44276;SDS011;29973;43.742;1.236;2022-10-16T03:12:00;20.45;;;14.45;;
44276;SDS011;29973;43.742;1.236;2022-10-16T03:14:26;22.55;;;14.15;;
44276;SDS011;29973;43.742;1.236;2022-10-16T03:16:51;26.70;;;15.55;;
44276;SDS011;29973;43.742;1.236;2022-10-16T03:19:17;22.77;;;14.60;;
44276;SDS011;29973;43.742;1.236;2022-10-16T03:21:43;21.80;;;15.27;;
44276;SDS011;29973;43.742;1.236;2022-10-16T03:24:09;27.13;;;15.45;;
44276;SDS011;29973;43.742;1.236;2022-10-16T03:26:35;26.35;;;16.52;;
44276;SDS011;29973;43.742;1.236;2022-10-16T03:29:01;26.75;;;15.18;;
44276;SDS011;29973;43.742;1.236;2022-10-16T03:31:28;25.50;;;14.52;;
44276;SDS011;29973;43.742;1.236;2022-10-16T03:33:54;30.25;;;15.65;;
44276;SDS011;29973;43.742;1.236;2022-10-16T03:36:20;35.78;;;16.33;;
44276;SDS011;29973;43.742;1.236;2022-10-16T03:38:46;27.98;;;15.77;;
44276;SDS011;29973;43.742;1.236;2022-10-16T03:41:11;26.67;;;15.80;;
44276;SDS011;29973;43.742;1.236;2022-10-16T03:43:37;22.13;;;15.38;;
44276;SDS011;29973;43.742;1.236;2022-10-16T03:46:03;25.95;;;15.50;;
44276;SDS011;29973;43.742;1.236;2022-10-16T03:48:29;24.65;;;14.70;;
44276;SDS011;29973;43.742;1.236;2022-10-16T03:50:55;27.85;;;15.07;;
44276;SDS011;29973;43.742;1.236;2022-10-16T03:53:21;23.48;;;14.57;;
44276;SDS011;29973;43.742;1.236;2022-10-16T03:55:47;17.55;;;13.32;;
44276;SDS011;29973;43.742;1.236;2022-10-16T03:58:12;23.70;;;14.25;;
44276;SDS011;29973;43.742;1.236;2022-10-16T04:00:42;21.70;;;13.55;;
44276;SDS011;29973;43.742;1.236;2022-10-16T04:03:09;25.13;;;13.57;;
44276;SDS011;29973;43.742;1.236;2022-10-16T04:05:35;20.60;;;13.13;;
44276;SDS011;29973;43.742;1.236;2022-10-16T04:08:01;23.98;;;13.48;;
44276;SDS011;29973;43.742;1.236;2022-10-16T04:10:27;21.40;;;12.85;;
44276;SDS011;29973;43.742;1.236;2022-10-16T04:12:53;23.85;;;13.15;;
44276;SDS011;29973;43.742;1.236;2022-10-16T04:15:21;20.20;;;13.60;;
44276;SDS011;29973;43.742;1.236;2022-10-16T04:17:50;23.95;;;13.50;;
44276;SDS011;29973;43.742;1.236;2022-10-16T04:20:16;20.73;;;12.80;;
44276;SDS011;29973;43.742;1.236;2022-10-16T04:22:43;19.80;;;13.07;;
44276;SDS011;29973;43.742;1.236;2022-10-16T04:25:09;21.75;;;13.68;;
44276;SDS011;29973;43.742;1.236;2022-10-16T04:27:36;26.45;;;13.38;;
44276;SDS011;29973;43.742;1.236;2022-10-16T04:30:02;18.80;;;12.65;;
44276;SDS011;29973;43.742;1.236;2022-10-16T04:32:28;19.33;;;12.57;;
44276;SDS011;29973;43.742;1.236;2022-10-16T04:34:54;22.10;;;12.95;;
44276;SDS011;29973;43.742;1.236;2022-10-16T04:37:23;25.92;;;12.63;;
44276;SDS011;29973;43.742;1.236;2022-10-16T04:39:52;23.05;;;13.18;;
44276;SDS011;29973;43.742;1.236;2022-10-16T04:42:18;22.70;;;13.38;;
44276;SDS011;29973;43.742;1.236;2022-10-16T04:44:44;17.70;;;13.18;;
44276;SDS011;29973;43.742;1.236;2022-10-16T04:47:10;26.08;;;12.95;;
44276;SDS011;29973;43.742;1.236;2022-10-16T04:49:36;23.10;;;14.07;;
44276;SDS011;29973;43.742;1.236;2022-10-16T04:52:02;22.33;;;13.63;;
44276;SDS011;29973;43.742;1.236;2022-10-16T04:54:28;26.30;;;13.68;;
44276;SDS011;29973;43.742;1.236;2022-10-16T04:56:54;29.90;;;14.70;;
44276;SDS011;29973;43.742;1.236;2022-10-16T04:59:20;29.02;;;14.27;;
44276;SDS011;29973;43.742;1.236;2022-10-16T05:01:47;23.52;;;13.05;;
44276;SDS011;29973;43.742;1.236;2022-10-16T05:04:13;23.60;;;13.65;;
44276;SDS011;29973;43.742;1.236;2022-10-16T05:06:40;18.83;;;12.27;;
44276;SDS011;29973;43.742;1.236;2022-10-16T05:09:07;22.98;;;13.07;;
44276;SDS011;29973;43.742;1.236;2022-10-16T05:11:33;25.67;;;14.02;;
44276;SDS011;29973;43.742;1.236;2022-10-16T05:13:59;24.05;;;12.40;;
44276;SDS011;29973;43.742;1.236;2022-10-16T05:16:25;24.92;;;12.57;;
44276;SDS011;29973;43.742;1.236;2022-10-16T05:18:51;24.05;;;13.30;;
44276;SDS011;29973;43.742;1.236;2022-10-16T05:21:17;25.33;;;12.75;;
44276;SDS011;29973;43.742;1.236;2022-10-16T05:23:43;23.00;;;12.57;;
44276;SDS011;29973;43.742;1.236;2022-10-16T05:26:09;26.50;;;12.98;;
44276;SDS011;29973;43.742;1.236;2022-10-16T05:28:35;21.13;;;12.30;;
44276;SDS011;29973;43.742;1.236;2022-10-16T05:31:07;24.80;;;12.75;;
44276;SDS011;29973;43.742;1.236;2022-10-16T05:33:34;22.10;;;12.45;;
44276;SDS011;29973;43.742;1.236;2022-10-16T05:36:01;23.30;;;12.60;;
44276;SDS011;29973;43.742;1.236;2022-10-16T05:38:28;20.65;;;11.80;;
44276;SDS011;29973;43.742;1.236;2022-10-16T05:40:54;22.33;;;12.25;;
44276;SDS011;29973;43.742;1.236;2022-10-16T05:43:19;20.05;;;12.32;;
44276;SDS011;29973;43.742;1.236;2022-10-16T05:45:53;23.48;;;11.98;;
44276;SDS011;29973;43.742;1.236;2022-10-16T05:48:29;17.55;;;11.55;;
44276;SDS011;29973;43.742;1.236;2022-10-16T05:50:59;20.52;;;11.98;;
44276;SDS011;29973;43.742;1.236;2022-10-16T05:53:28;22.15;;;12.63;;
44276;SDS011;29973;43.742;1.236;2022-10-16T05:55:55;20.80;;;12.38;;
44276;SDS011;29973;43.742;1.236;2022-10-16T05:58:22;22.08;;;12.32;;
44276;SDS011;29973;43.742;1.236;2022-10-16T06:00:55;26.20;;;13.32;;
44276;SDS011;29973;43.742;1.236;2022-10-16T06:03:22;21.38;;;12.13;;
44276;SDS011;29973;43.742;1.236;2022-10-16T06:05:48;22.27;;;11.57;;
44276;SDS011;29973;43.742;1.236;2022-10-16T06:08:14;21.23;;;12.15;;
44276;SDS011;29973;43.742;1.236;2022-10-16T06:10:39;18.45;;;12.50;;
44276;SDS011;29973;43.742;1.236;2022-10-16T06:13:05;25.02;;;11.85;;
44276;SDS011;29973;43.742;1.236;2022-10-16T06:15:31;19.80;;;11.68;;
44276;SDS011;29973;43.742;1.236;2022-10-16T06:17:56;21.65;;;12.35;;
44276;SDS011;29973;43.742;1.236;2022-10-16T06:20:22;18.30;;;11.73;;
44276;SDS011;29973;43.742;1.236;2022-10-16T06:22:48;22.15;;;13.02;;
44276;SDS011;29973;43.742;1.236;2022-10-16T06:25:13;21.98;;;12.77;;
44276;SDS011;29973;43.742;1.236;2022-10-16T06:27:39;23.10;;;12.23;;
44276;SDS011;29973;43.742;1.236;2022-10-16T06:30:06;17.48;;;11.52;;
44276;SDS011;29973;43.742;1.236;2022-10-16T06:32:32;20.75;;;12.40;;
44276;SDS011;29973;43.742;1.236;2022-10-16T06:34:58;18.80;;;12.55;;
44276;SDS011;29973;43.742;1.236;2022-10-16T06:37:23;20.52;;;12.30;;
44276;SDS011;29973;43.742;1.236;2022-10-16T06:39:50;17.48;;;12.63;;
44276;SDS011;29973;43.742;1.236;2022-10-16T06:42:17;16.85;;;12.25;;
44276;SDS011;29973;43.742;1.236;2022-10-16T06:44:43;24.15;;;12.43;;
44276;SDS011;29973;43.742;1.236;2022-10-16T06:47:09;24.17;;;12.75;;
44276;SDS011;29973;43.742;1.236;2022-10-16T06:49:35;23.13;;;13.00;;
44276;SDS011;29973;43.742;1.236;2022-10-16T06:52:01;23.02;;;12.13;;
44276;SDS011;29973;43.742;1.236;2022-10-16T06:54:27;16.35;;;11.82;;
44276;SDS011;29973;43.742;1.236;2022-10-16T06:56:54;22.98;;;11.85;;
44276;SDS011;29973;43.742;1.236;2022-10-16T06:59:20;17.52;;;12.15;;
44276;SDS011;29973;43.742;1.236;2022-10-16T07:01:46;24.38;;;12.57;;
44276;SDS011;29973;43.742;1.236;2022-10-16T07:04:11;21.00;;;12.63;;
44276;SDS011;29973;43.742;1.236;2022-10-16T07:06:37;22.23;;;13.02;;
44276;SDS011;29973;43.742;1.236;2022-10-16T07:09:04;20.15;;;12.90;;
44276;SDS011;29973;43.742;1.236;2022-10-16T07:11:31;20.70;;;12.57;;
44276;SDS011;29973;43.742;1.236;2022-10-16T07:13:58;19.48;;;12.50;;
44276;SDS011;29973;43.742;1.236;2022-10-16T07:16:27;21.90;;;12.43;;
44276;SDS011;29973;43.742;1.236;2022-10-16T07:18:55;22.05;;;12.43;;
44276;SDS011;29973;43.742;1.236;2022-10-16T07:21:25;27.95;;;12.65;;
44276;SDS011;29973;43.742;1.236;2022-10-16T07:23:54;21.27;;;12.18;;
44276;SDS011;29973;43.742;1.236;2022-10-16T07:26:21;18.85;;;12.60;;
44276;SDS011;29973;43.742;1.236;2022-10-16T07:28:47;22.90;;;13.88;;
44276;SDS011;29973;43.742;1.236;2022-10-16T07:31:34;18.02;;;12.35;;
44276;SDS011;29973;43.742;1.236;2022-10-16T07:34:00;21.15;;;12.60;;
44276;SDS011;29973;43.742;1.236;2022-10-16T07:36:25;18.92;;;12.90;;
44276;SDS011;29973;43.742;1.236;2022-10-16T07:38:52;25.42;;;12.30;;
44276;SDS011;29973;43.742;1.236;2022-10-16T07:41:18;20.92;;;12.00;;
44276;SDS011;29973;43.742;1.236;2022-10-16T07:43:48;15.98;;;12.32;;
44276;SDS011;29973;43.742;1.236;2022-10-16T07:46:15;19.83;;;12.20;;
44276;SDS011;29973;43.742;1.236;2022-10-16T07:48:41;25.30;;;12.10;;
44276;SDS011;29973;43.742;1.236;2022-10-16T07:51:10;19.85;;;12.35;;
44276;SDS011;29973;43.742;1.236;2022-10-16T07:53:37;19.10;;;11.95;;
44276;SDS011;29973;43.742;1.236;2022-10-16T07:56:04;18.60;;;12.35;;
44276;SDS011;29973;43.742;1.236;2022-10-16T07:58:31;15.93;;;11.40;;
44276;SDS011;29973;43.742;1.236;2022-10-16T08:00:58;17.70;;;11.52;;
44276;SDS011;29973;43.742;1.236;2022-10-16T08:03:28;17.05;;;10.73;;
44276;SDS011;29973;43.742;1.236;2022-10-16T08:05:54;20.38;;;12.13;;
44276;SDS011;29973;43.742;1.236;2022-10-16T08:08:22;19.48;;;11.45;;
44276;SDS011;29973;43.742;1.236;2022-10-16T08:10:48;17.10;;;11.40;;
44276;SDS011;29973;43.742;1.236;2022-10-16T08:13:14;14.65;;;10.32;;
44276;SDS011;29973;43.742;1.236;2022-10-16T08:15:40;13.20;;;11.07;;
44276;SDS011;29973;43.742;1.236;2022-10-16T08:18:06;22.42;;;10.38;;
44276;SDS011;29973;43.742;1.236;2022-10-16T08:20:32;13.80;;;10.60;;
44276;SDS011;29973;43.742;1.236;2022-10-16T08:22:59;17.23;;;10.38;;
44276;SDS011;29973;43.742;1.236;2022-10-16T08:25:25;16.10;;;10.20;;
44276;SDS011;29973;43.742;1.236;2022-10-16T08:27:51;13.48;;;8.82;;
44276;SDS011;29973;43.742;1.236;2022-10-16T08:30:17;12.73;;;8.35;;
44276;SDS011;29973;43.742;1.236;2022-10-16T08:32:45;11.05;;;8.18;;
44276;SDS011;29973;43.742;1.236;2022-10-16T08:35:11;13.18;;;8.65;;
44276;SDS011;29973;43.742;1.236;2022-10-16T08:37:38;14.50;;;8.93;;
44276;SDS011;29973;43.742;1.236;2022-10-16T08:40:05;11.15;;;7.75;;
44276;SDS011;29973;43.742;1.236;2022-10-16T08:42:39;14.20;;;8.32;;
44276;SDS011;29973;43.742;1.236;2022-10-16T08:50:30;11.07;;;7.75;;
44276;SDS011;29973;43.742;1.236;2022-10-16T08:52:57;11.57;;;8.35;;
44276;SDS011;29973;43.742;1.236;2022-10-16T08:55:57;13.38;;;8.55;;
44276;SDS011;29973;43.742;1.236;2022-10-16T08:58:18;13.90;;;7.35;;
44276;SDS011;29973;43.742;1.236;2022-10-16T09:00:46;20.35;;;8.60;;
44276;SDS011;29973;43.742;1.236;2022-10-16T09:06:24;11.80;;;7.82;;
44276;SDS011;29973;43.742;1.236;2022-10-16T09:16:57;11.73;;;8.98;;
44276;SDS011;29973;43.742;1.236;2022-10-16T09:22:14;15.27;;;8.30;;
44276;SDS011;29973;43.742;1.236;2022-10-16T09:24:41;17.13;;;8.80;;
44276;SDS011;29973;43.742;1.236;2022-10-16T09:27:11;14.77;;;8.23;;
44276;SDS011;29973;43.742;1.236;2022-10-16T09:29:38;14.00;;;8.10;;
44276;SDS011;29973;43.742;1.236;2022-10-16T09:32:10;11.88;;;8.13;;
44276;SDS011;29973;43.742;1.236;2022-10-16T09:34:41;13.18;;;8.13;;
44276;SDS011;29973;43.742;1.236;2022-10-16T09:37:12;12.93;;;7.55;;
44276;SDS011;29973;43.742;1.236;2022-10-16T09:39:49;18.30;;;8.07;;
44276;SDS011;29973;43.742;1.236;2022-10-16T09:42:37;16.50;;;8.18;;
44276;SDS011;29973;43.742;1.236;2022-10-16T09:45:02;13.82;;;7.82;;
44276;SDS011;29973;43.742;1.236;2022-10-16T09:47:29;9.05;;;6.70;;
44276;SDS011;29973;43.742;1.236;2022-10-16T09:49:57;14.05;;;7.45;;
44276;SDS011;29973;43.742;1.236;2022-10-16T09:52:27;11.68;;;6.90;;
44276;SDS011;29973;43.742;1.236;2022-10-16T09:54:57;12.40;;;6.53;;
44276;SDS011;29973;43.742;1.236;2022-10-16T09:57:25;14.75;;;6.72;;
44276;SDS011;29973;43.742;1.236;2022-10-16T09:59:52;16.10;;;5.53;;
44276;SDS011;29973;43.742;1.236;2022-10-16T10:02:23;13.93;;;6.63;;
44276;SDS011;29973;43.742;1.236;2022-10-16T10:04:55;8.90;;;6.72;;
44276;SDS011;29973;43.742;1.236;2022-10-16T10:07:32;14.57;;;6.30;;
44276;SDS011;29973;43.742;1.236;2022-10-16T10:10:04;11.18;;;6.57;;
44276;SDS011;29973;43.742;1.236;2022-10-16T10:12:30;11.57;;;6.20;;
44276;SDS011;29973;43.742;1.236;2022-10-16T10:15:03;10.48;;;5.75;;
44276;SDS011;29973;43.742;1.236;2022-10-16T10:17:30;10.65;;;5.00;;
44276;SDS011;29973;43.742;1.236;2022-10-16T10:19:57;10.15;;;5.30;;
44276;SDS011;29973;43.742;1.236;2022-10-16T10:22:42;9.65;;;4.93;;
44276;SDS011;29973;43.742;1.236;2022-10-16T10:46:40;8.63;;;4.45;;
44276;SDS011;29973;43.742;1.236;2022-10-16T10:49:32;7.25;;;3.95;;
44276;SDS011;29973;43.742;1.236;2022-10-16T11:03:35;7.25;;;4.53;;
44276;SDS011;29973;43.742;1.236;2022-10-16T11:09:17;7.57;;;3.95;;
44276;SDS011;29973;43.742;1.236;2022-10-16T11:11:52;9.68;;;3.78;;
44276;SDS011;29973;43.742;1.236;2022-10-16T11:14:36;10.60;;;3.58;;
44276;SDS011;29973;43.742;1.236;2022-10-16T11:17:25;7.72;;;3.85;;
44276;SDS011;29973;43.742;1.236;2022-10-16T11:19:58;10.63;;;4.07;;
44276;SDS011;29973;43.742;1.236;2022-10-16T11:22:30;8.13;;;4.20;;
44276;SDS011;29973;43.742;1.236;2022-10-16T11:25:00;8.90;;;3.92;;
44276;SDS011;29973;43.742;1.236;2022-10-16T11:32:56;5.57;;;3.47;;
44276;SDS011;29973;43.742;1.236;2022-10-16T11:35:52;11.23;;;4.32;;
44276;SDS011;29973;43.742;1.236;2022-10-16T11:41:39;9.77;;;3.58;;
44276;SDS011;29973;43.742;1.236;2022-10-16T11:49:46;8.07;;;3.58;;
44276;SDS011;29973;43.742;1.236;2022-10-16T11:52:23;12.10;;;3.58;;
44276;SDS011;29973;43.742;1.236;2022-10-16T11:57:49;7.63;;;3.45;;
44276;SDS011;29973;43.742;1.236;2022-10-16T12:00:29;6.28;;;3.05;;
44276;SDS011;29973;43.742;1.236;2022-10-16T12:05:52;8.13;;;3.35;;
44276;SDS011;29973;43.742;1.236;2022-10-16T12:08:38;11.32;;;3.85;;
44276;SDS011;29973;43.742;1.236;2022-10-16T12:11:09;7.05;;;3.13;;
44276;SDS011;29973;43.742;1.236;2022-10-16T12:16:57;7.80;;;3.10;;
44276;SDS011;29973;43.742;1.236;2022-10-16T12:19:30;9.07;;;3.65;;
44276;SDS011;29973;43.742;1.236;2022-10-16T12:21:57;6.00;;;3.57;;
44276;SDS011;29973;43.742;1.236;2022-10-16T12:24:32;6.13;;;3.00;;
44276;SDS011;29973;43.742;1.236;2022-10-16T12:27:01;16.63;;;7.10;;
44276;SDS011;29973;43.742;1.236;2022-10-16T12:29:34;6.43;;;2.90;;
44276;SDS011;29973;43.742;1.236;2022-10-16T12:32:00;6.70;;;2.80;;
44276;SDS011;29973;43.742;1.236;2022-10-16T12:34:29;9.00;;;3.22;;
44276;SDS011;29973;43.742;1.236;2022-10-16T12:37:06;7.70;;;3.17;;
44276;SDS011;29973;43.742;1.236;2022-10-16T12:39:38;8.00;;;2.67;;
44276;SDS011;29973;43.742;1.236;2022-10-16T12:42:04;5.90;;;3.00;;
44276;SDS011;29973;43.742;1.236;2022-10-16T12:44:47;8.13;;;3.72;;
44276;SDS011;29973;43.742;1.236;2022-10-16T12:47:48;9.13;;;3.40;;
44276;SDS011;29973;43.742;1.236;2022-10-16T12:50:26;10.05;;;3.58;;
44276;SDS011;29973;43.742;1.236;2022-10-16T12:52:56;9.03;;;3.07;;
44276;SDS011;29973;43.742;1.236;2022-10-16T12:55:22;9.52;;;3.50;;
44276;SDS011;29973;43.742;1.236;2022-10-16T13:02:58;4.50;;;2.53;;
44276;SDS011;29973;43.742;1.236;2022-10-16T13:11:15;8.32;;;2.88;;
44276;SDS011;29973;43.742;1.236;2022-10-16T13:17:01;4.63;;;2.60;;
44276;SDS011;29973;43.742;1.236;2022-10-16T13:19:44;5.28;;;2.60;;
44276;SDS011;29973;43.742;1.236;2022-10-16T13:27:57;11.35;;;2.80;;
44276;SDS011;29973;43.742;1.236;2022-10-16T13:30:34;6.35;;;2.83;;
44276;SDS011;29973;43.742;1.236;2022-10-16T13:33:07;5.90;;;2.33;;
44276;SDS011;29973;43.742;1.236;2022-10-16T13:35:47;7.85;;;2.60;;
44276;SDS011;29973;43.742;1.236;2022-10-16T13:38:22;4.10;;;2.15;;
44276;SDS011;29973;43.742;1.236;2022-10-16T13:45:57;6.28;;;2.15;;
44276;SDS011;29973;43.742;1.236;2022-10-16T13:48:24;10.13;;;2.75;;
44276;SDS011;29973;43.742;1.236;2022-10-16T13:51:00;7.07;;;2.28;;
44276;SDS011;29973;43.742;1.236;2022-10-16T13:53:37;8.88;;;2.45;;
44276;SDS011;29973;43.742;1.236;2022-10-16T13:56:07;8.07;;;2.97;;
44276;SDS011;29973;43.742;1.236;2022-10-16T13:58:39;9.35;;;2.42;;
44276;SDS011;29973;43.742;1.236;2022-10-16T14:01:12;9.88;;;2.72;;
44276;SDS011;29973;43.742;1.236;2022-10-16T14:03:45;5.90;;;2.40;;
44276;SDS011;29973;43.742;1.236;2022-10-16T14:06:13;6.72;;;2.45;;
44276;SDS011;29973;43.742;1.236;2022-10-16T14:08:44;9.23;;;2.50;;
44276;SDS011;29973;43.742;1.236;2022-10-16T14:11:19;5.68;;;2.28;;
44276;SDS011;29973;43.742;1.236;2022-10-16T14:13:48;4.72;;;1.90;;
44276;SDS011;29973;43.742;1.236;2022-10-16T14:16:16;7.47;;;2.58;;
44276;SDS011;29973;43.742;1.236;2022-10-16T14:18:56;4.28;;;2.10;;
44276;SDS011;29973;43.742;1.236;2022-10-16T14:21:24;6.93;;;2.55;;
44276;SDS011;29973;43.742;1.236;2022-10-16T14:23:51;6.28;;;1.95;;
44276;SDS011;29973;43.742;1.236;2022-10-16T14:26:19;8.07;;;2.57;;
44276;SDS011;29973;43.742;1.236;2022-10-16T14:28:47;8.60;;;2.22;;
44276;SDS011;29973;43.742;1.236;2022-10-16T14:33:50;7.18;;;1.83;;
44276;SDS011;29973;43.742;1.236;2022-10-16T14:36:16;7.88;;;2.30;;
44276;SDS011;29973;43.742;1.236;2022-10-16T14:39:03;13.80;;;2.78;;
44276;SDS011;29973;43.742;1.236;2022-10-16T14:41:43;5.43;;;2.42;;
44276;SDS011;29973;43.742;1.236;2022-10-16T14:44:12;8.32;;;1.95;;
44276;SDS011;29973;43.742;1.236;2022-10-16T14:46:39;7.53;;;1.98;;
44276;SDS011;29973;43.742;1.236;2022-10-16T14:51:36;10.68;;;2.65;;
44276;SDS011;29973;43.742;1.236;2022-10-16T14:54:11;4.88;;;1.73;;
44276;SDS011;29973;43.742;1.236;2022-10-16T14:59:12;6.43;;;2.13;;
44276;SDS011;29973;43.742;1.236;2022-10-16T15:02:35;8.10;;;2.60;;
44276;SDS011;29973;43.742;1.236;2022-10-16T15:04:58;7.30;;;2.20;;
44276;SDS011;29973;43.742;1.236;2022-10-16T15:07:44;7.70;;;2.60;;
44276;SDS011;29973;43.742;1.236;2022-10-16T15:10:11;6.47;;;2.35;;
44276;SDS011;29973;43.742;1.236;2022-10-16T15:12:40;7.53;;;2.80;;
44276;SDS011;29973;43.742;1.236;2022-10-16T15:15:49;8.38;;;2.25;;
44276;SDS011;29973;43.742;1.236;2022-10-16T15:18:03;10.15;;;2.63;;
44276;SDS011;29973;43.742;1.236;2022-10-16T15:20:34;7.15;;;3.05;;
44276;SDS011;29973;43.742;1.236;2022-10-16T15:23:02;8.20;;;2.88;;
44276;SDS011;29973;43.742;1.236;2022-10-16T15:28:07;15.82;;;2.83;;
44276;SDS011;29973;43.742;1.236;2022-10-16T15:30:34;10.07;;;2.70;;
44276;SDS011;29973;43.742;1.236;2022-10-16T15:33:01;8.10;;;3.20;;
44276;SDS011;29973;43.742;1.236;2022-10-16T15:35:28;10.95;;;2.78;;
44276;SDS011;29973;43.742;1.236;2022-10-16T15:37:54;7.68;;;2.33;;
44276;SDS011;29973;43.742;1.236;2022-10-16T15:40:20;9.23;;;2.15;;
44276;SDS011;29973;43.742;1.236;2022-10-16T15:42:46;6.95;;;2.28;;
44276;SDS011;29973;43.742;1.236;2022-10-16T15:45:12;10.85;;;2.42;;
44276;SDS011;29973;43.742;1.236;2022-10-16T15:47:38;6.05;;;2.50;;
44276;SDS011;29973;43.742;1.236;2022-10-16T15:50:06;8.50;;;2.63;;
44276;SDS011;29973;43.742;1.236;2022-10-16T15:52:34;11.95;;;2.50;;
44276;SDS011;29973;43.742;1.236;2022-10-16T15:54:59;6.85;;;2.45;;
44276;SDS011;29973;43.742;1.236;2022-10-16T15:57:27;8.68;;;2.67;;
44276;SDS011;29973;43.742;1.236;2022-10-16T15:59:54;8.07;;;2.60;;
44276;SDS011;29973;43.742;1.236;2022-10-16T16:02:19;8.38;;;2.40;;
44276;SDS011;29973;43.742;1.236;2022-10-16T16:04:45;8.00;;;2.72;;
44276;SDS011;29973;43.742;1.236;2022-10-16T16:07:11;5.22;;;2.50;;
44276;SDS011;29973;43.742;1.236;2022-10-16T16:09:37;11.60;;;2.75;;
44276;SDS011;29973;43.742;1.236;2022-10-16T16:12:03;6.63;;;2.30;;
44276;SDS011;29973;43.742;1.236;2022-10-16T16:14:28;12.38;;;2.58;;
44276;SDS011;29973;43.742;1.236;2022-10-16T16:16:55;8.25;;;2.60;;
44276;SDS011;29973;43.742;1.236;2022-10-16T16:19:21;8.43;;;2.88;;
44276;SDS011;29973;43.742;1.236;2022-10-16T16:21:47;9.68;;;2.58;;
44276;SDS011;29973;43.742;1.236;2022-10-16T16:24:13;8.05;;;2.60;;
44276;SDS011;29973;43.742;1.236;2022-10-16T16:26:39;8.65;;;3.13;;
44276;SDS011;29973;43.742;1.236;2022-10-16T16:29:08;7.68;;;3.00;;
44276;SDS011;29973;43.742;1.236;2022-10-16T16:31:38;10.38;;;3.00;;
44276;SDS011;29973;43.742;1.236;2022-10-16T16:34:04;10.95;;;3.17;;
44276;SDS011;29973;43.742;1.236;2022-10-16T16:36:30;4.95;;;2.20;;
44276;SDS011;29973;43.742;1.236;2022-10-16T16:38:56;8.32;;;2.92;;
44276;SDS011;29973;43.742;1.236;2022-10-16T16:41:23;7.60;;;2.95;;
44276;SDS011;29973;43.742;1.236;2022-10-16T16:43:51;13.00;;;3.00;;
44276;SDS011;29973;43.742;1.236;2022-10-16T16:46:17;11.85;;;3.03;;
44276;SDS011;29973;43.742;1.236;2022-10-16T16:48:44;13.35;;;3.20;;
44276;SDS011;29973;43.742;1.236;2022-10-16T16:51:14;6.97;;;2.95;;
44276;SDS011;29973;43.742;1.236;2022-10-16T16:53:43;15.25;;;3.78;;
44276;SDS011;29973;43.742;1.236;2022-10-16T16:56:10;9.95;;;3.30;;
44276;SDS011;29973;43.742;1.236;2022-10-16T16:58:36;12.98;;;3.22;;
44276;SDS011;29973;43.742;1.236;2022-10-16T17:01:02;6.72;;;3.15;;
44276;SDS011;29973;43.742;1.236;2022-10-16T17:03:29;19.50;;;3.63;;